Time;durP1;ratioP1;P1;durP2;ratioP2;P2;SDS_P1;SDS_P2;PMS_P1;PMS_P2;Temp;Humidity;BMP_temperature;BMP_pressure;BME280_temperature;BME280_humidity;BME280_pressure;Samples;Min_cycle;Max_cycle;Signal;HPM_P1;HPM_P2
2022/01/25 00:09:32;;;;;;;24.17;15.00;;;;;;;-1.28;100.00;99712.16;5068720;28;20253;-65
2022/01/25 00:25:58;;;;;;;22.53;14.00;;;;;;;-1.62;100.00;99710.28;5071348;28;20249;-64
2022/01/25 00:28:37;;;;;;;22.47;15.07;;;;;;;-1.65;100.00;99711.16;5073374;28;20265;-64
2022/01/25 00:31:10;;;;;;;19.87;13.83;;;;;;;-1.62;100.00;99707.69;5073427;28;20275;-64
2022/01/25 00:33:39;;;;;;;21.77;13.70;;;;;;;-1.60;100.00;99716.38;5073309;28;20218;-64
2022/01/25 00:36:07;;;;;;;21.57;14.70;;;;;;;-1.61;100.00;99715.50;5073384;28;20212;-64
2022/01/25 00:38:34;;;;;;;21.93;14.07;;;;;;;-1.61;100.00;99710.31;5071629;28;20226;-64
2022/01/25 00:41:02;;;;;;;25.13;16.17;;;;;;;-1.59;100.00;99712.91;5073259;28;20595;-64
2022/01/25 00:43:30;;;;;;;27.83;16.87;;;;;;;-1.62;100.00;99707.69;5073260;28;20219;-64
2022/01/25 00:46:00;;;;;;;23.77;15.33;;;;;;;-1.74;100.00;99712.84;5073307;28;20257;-65
2022/01/25 00:48:41;;;;;;;21.13;14.80;;;;;;;-1.82;100.00;99710.25;5073302;28;20218;-64
2022/01/25 00:51:19;;;;;;;21.27;13.30;;;;;;;-1.97;100.00;99712.72;5073249;28;20221;-64
2022/01/25 00:53:56;;;;;;;18.40;12.93;;;;;;;-2.11;100.00;99710.91;5072742;28;20247;-64
2022/01/25 00:56:26;;;;;;;19.80;13.60;;;;;;;-2.21;100.00;99719.50;5067251;28;20728;-64
2022/01/25 00:58:53;;;;;;;18.53;12.40;;;;;;;-2.31;100.00;99712.53;5073054;28;20222;-65
2022/01/25 01:01:20;;;;;;;19.93;12.63;;;;;;;-2.35;100.00;99715.94;5072802;28;20246;-64
2022/01/25 01:03:47;;;;;;;17.53;12.10;;;;;;;-2.44;100.00;99708.13;5071470;28;20584;-64
2022/01/25 01:06:14;;;;;;;19.33;12.30;;;;;;;-2.43;100.00;99715.03;5073036;28;20224;-64
2022/01/25 01:08:42;;;;;;;21.47;13.03;;;;;;;-2.42;100.00;99714.19;5072822;28;20241;-64
2022/01/25 01:11:12;;;;;;;22.07;14.00;;;;;;;-2.44;100.00;99715.91;5073110;28;20243;-64
2022/01/25 01:13:53;;;;;;;23.30;13.43;;;;;;;-2.38;100.00;99721.13;5072927;28;20264;-64
2022/01/25 01:16:44;;;;;;;21.67;13.43;;;;;;;-2.33;100.00;99714.25;5073037;28;20217;-64
2022/01/25 01:30:22;;;;;;;21.83;13.80;;;;;;;-2.17;100.00;99726.44;5070801;28;20252;-65
2022/01/25 01:33:26;;;;;;;21.27;13.80;;;;;;;-2.17;100.00;99718.66;5065379;28;20244;-64
2022/01/25 01:39:11;;;;;;;22.67;13.83;;;;;;;-2.12;100.00;99714.38;5071795;28;20211;-65
2022/01/25 01:44:20;;;;;;;22.67;14.70;;;;;;;-2.38;100.00;99710.75;5048546;28;20216;-64
2022/01/25 01:47:02;;;;;;;20.27;13.17;;;;;;;-2.42;100.00;99706.41;5072398;28;20217;-64
2022/01/25 01:49:29;;;;;;;23.03;14.27;;;;;;;-2.45;100.00;99709.00;5066563;28;20687;-64
2022/01/25 01:51:56;;;;;;;20.63;13.33;;;;;;;-2.47;100.00;99710.69;5072548;28;20287;-64
2022/01/25 01:54:23;;;;;;;22.63;14.13;;;;;;;-2.44;100.00;99715.91;5072362;28;20226;-64
2022/01/25 01:56:50;;;;;;;21.17;13.77;;;;;;;-2.40;100.00;99712.50;5070578;28;20221;-64
2022/01/25 01:59:18;;;;;;;26.83;15.73;;;;;;;-2.44;100.00;99706.41;5065822;28;20248;-65
2022/01/25 02:01:48;;;;;;;26.67;14.90;;;;;;;-2.38;100.00;99701.25;5072357;28;20302;-64
2022/01/25 02:04:17;;;;;;;22.43;14.43;;;;;;;-2.35;100.00;99710.78;5072258;28;20219;-64
2022/01/25 02:06:43;;;;;;;24.10;14.33;;;;;;;-2.36;100.00;99698.69;5074151;28;20218;-64
2022/01/25 02:09:10;;;;;;;24.27;14.50;;;;;;;-2.33;100.00;99704.75;5076068;28;20214;-64
2022/01/25 02:11:38;;;;;;;24.93;14.07;;;;;;;-2.34;100.00;99707.34;5075886;28;20210;-64
2022/01/25 02:14:08;;;;;;;23.27;15.23;;;;;;;-2.44;100.00;99711.56;5075777;28;20226;-64
2022/01/25 02:16:44;;;;;;;25.70;14.40;;;;;;;-2.44;100.00;99700.38;5076114;28;20587;-64
2022/01/25 02:22:26;;;;;;;23.90;13.60;;;;;;;-2.36;100.00;99714.22;5053468;28;20600;-64
2022/01/25 02:24:53;;;;;;;26.40;14.00;;;;;;;-2.36;100.00;99704.75;5066375;28;20343;-64
2022/01/25 02:27:19;;;;;;;22.73;13.80;;;;;;;-2.39;100.00;99703.88;5075504;28;20228;-64
2022/01/25 02:29:46;;;;;;;23.00;14.80;;;;;;;-2.43;100.00;99709.88;5075840;28;20217;-64
2022/01/25 02:32:12;;;;;;;28.67;16.27;;;;;;;-2.50;100.00;99710.69;5075770;28;20580;-64
2022/01/25 02:34:39;;;;;;;26.83;15.20;;;;;;;-2.54;100.00;99708.91;5075345;28;20827;-64
2022/01/25 02:37:10;;;;;;;27.27;15.30;;;;;;;-2.44;100.00;99706.41;5075243;28;20214;-64
2022/01/25 02:39:39;;;;;;;28.67;15.77;;;;;;;-2.46;100.00;99702.94;5075589;28;20580;-64
2022/01/25 02:42:06;;;;;;;29.00;17.27;;;;;;;-2.43;100.00;99707.28;5075090;28;20245;-64
2022/01/25 02:44:34;;;;;;;28.07;16.93;;;;;;;-2.39;100.00;99714.22;5075211;28;20220;-64
2022/01/25 02:49:45;;;;;;;27.53;17.20;;;;;;;-2.62;100.00;99700.22;5068216;28;20283;-64
2022/01/25 02:52:13;;;;;;;27.67;17.13;;;;;;;-2.60;100.00;99703.69;5075449;28;20224;-64
2022/01/25 02:54:40;;;;;;;29.47;16.80;;;;;;;-2.57;100.00;99703.72;5075284;28;20216;-64
2022/01/25 02:57:07;;;;;;;28.07;17.30;;;;;;;-2.54;100.00;99702.03;5074923;28;20246;-64
2022/01/25 02:59:34;;;;;;;29.50;17.53;;;;;;;-2.55;100.00;99702.00;5070297;28;20241;-64
2022/01/25 03:02:00;;;;;;;33.03;18.10;;;;;;;-2.54;100.00;99701.16;5075251;28;20291;-64
2022/01/25 03:04:26;;;;;;;33.33;18.53;;;;;;;-2.55;100.00;99689.94;5075253;28;20217;-64
2022/01/25 03:06:53;;;;;;;34.50;20.57;;;;;;;-2.56;100.00;99690.81;5074821;28;20222;-64
2022/01/25 03:09:21;;;;;;;37.03;19.70;;;;;;;-2.54;100.00;99688.22;5074798;28;20220;-64
2022/01/25 03:11:51;;;;;;;34.90;19.50;;;;;;;-2.49;100.00;99691.69;5074698;28;20216;-64
2022/01/25 03:14:20;;;;;;;38.80;21.87;;;;;;;-2.51;100.00;99681.31;5074832;28;20214;-64
2022/01/25 03:16:53;;;;;;;37.50;21.13;;;;;;;-2.43;100.00;99691.75;5073058;28;20225;-64
2022/01/25 03:19:43;;;;;;;38.43;19.63;;;;;;;-2.36;100.00;99684.03;5074137;28;20322;-64
2022/01/25 03:22:16;;;;;;;36.03;20.70;;;;;;;-2.36;100.00;99690.91;5071134;28;20252;-64
2022/01/25 03:24:45;;;;;;;38.13;20.50;;;;;;;-2.36;100.00;99683.16;5074619;28;20246;-64
2022/01/25 03:27:12;;;;;;;34.67;19.67;;;;;;;-2.35;100.00;99682.28;5074378;28;20222;-64
2022/01/25 03:29:39;;;;;;;34.63;20.73;;;;;;;-2.35;100.00;99677.13;5074245;28;20221;-64
2022/01/25 03:32:06;;;;;;;35.10;20.80;;;;;;;-2.35;100.00;99674.53;5074392;28;20672;-64
2022/01/25 03:34:33;;;;;;;40.53;21.23;;;;;;;-2.30;100.00;99678.88;5074162;28;20214;-64
2022/01/25 03:36:59;;;;;;;35.13;20.70;;;;;;;-2.26;100.00;99685.78;5074529;28;20221;-64
2022/01/25 03:39:26;;;;;;;38.57;20.50;;;;;;;-2.29;100.00;99675.44;5074103;28;20228;-64
2022/01/25 03:41:54;;;;;;;37.50;21.33;;;;;;;-2.30;100.00;99673.72;5072561;28;20253;-64
2022/01/25 03:44:20;;;;;;;37.60;21.10;;;;;;;-2.28;100.00;99676.31;5074410;28;20230;-64
2022/01/25 03:47:00;;;;;;;30.30;18.73;;;;;;;-2.26;100.00;99680.63;5074126;28;20675;-64
2022/01/25 03:52:12;;;;;;;34.87;19.80;;;;;;;-2.17;100.00;99675.50;5071937;28;20293;-64
2022/01/25 03:54:39;;;;;;;36.73;20.30;;;;;;;-2.21;100.00;99673.75;5074295;28;20213;-64
2022/01/25 03:57:07;;;;;;;36.53;20.90;;;;;;;-2.19;100.00;99666.00;5074133;28;20222;-64
2022/01/25 03:59:34;;;;;;;35.17;19.80;;;;;;;-2.21;100.00;99660.81;5073950;28;20229;-64
2022/01/25 04:02:00;;;;;;;34.03;21.40;;;;;;;-2.20;100.00;99664.28;5073833;28;20234;-64
2022/01/25 04:04:29;;;;;;;34.40;19.70;;;;;;;-2.15;100.00;99665.16;5073788;28;20224;-64
2022/01/25 04:06:55;;;;;;;38.90;20.57;;;;;;;-2.09;100.00;99667.78;5073729;28;20710;-64
2022/01/25 04:09:22;;;;;;;36.33;20.27;;;;;;;-2.06;100.00;99662.59;5072240;28;20208;-64
2022/01/25 04:11:49;;;;;;;39.17;21.00;;;;;;;-2.00;100.00;99667.81;5073842;28;20267;-64
2022/01/25 04:14:17;;;;;;;33.77;20.03;;;;;;;-1.96;100.00;99661.81;5073613;28;20221;-64
2022/01/25 04:16:51;;;;;;;37.63;20.40;;;;;;;-1.93;100.00;99656.63;5073791;28;20217;-64
2022/01/25 04:19:26;;;;;;;35.60;19.93;;;;;;;-1.94;100.00;99653.19;5073441;28;20217;-64
2022/01/25 04:25:01;;;;;;;32.10;19.47;;;;;;;-1.85;100.00;99657.53;5073090;28;20241;-64
2022/01/25 04:27:28;;;;;;;33.73;19.53;;;;;;;-1.91;100.00;99641.97;5073592;28;20315;-64
2022/01/25 04:29:56;;;;;;;33.67;19.80;;;;;;;-1.92;100.00;99647.97;5072804;28;20220;-64
2022/01/25 04:32:31;;;;;;;34.97;20.03;;;;;;;-1.95;100.00;99647.97;5073419;28;20217;-64
2022/01/25 04:35:10;;;;;;;36.83;20.00;;;;;;;-1.91;100.00;99648.00;5071709;28;20226;-64
2022/01/25 04:54:29;;;;;;;30.77;19.03;;;;;;;-1.86;100.00;99642.81;5073204;28;20215;-64
2022/01/25 04:57:06;;;;;;;33.67;19.53;;;;;;;-1.86;100.00;99638.50;5072863;28;20218;-64
2022/01/25 04:59:38;;;;;;;33.83;18.93;;;;;;;-1.91;100.00;99647.16;5073071;28;20306;-64
2022/01/25 05:02:12;;;;;;;30.67;18.33;;;;;;;-1.96;100.00;99646.25;5070980;28;20296;-64
2022/01/25 05:04:43;;;;;;;37.13;20.67;;;;;;;-2.01;100.00;99645.38;5072978;28;20222;-64
2022/01/25 05:07:23;;;;;;;39.87;21.30;;;;;;;-2.06;100.00;99647.06;5065505;28;20246;-64
2022/01/25 05:09:51;;;;;;;35.10;20.03;;;;;;;-2.05;100.00;99639.31;5072913;28;20213;-64
2022/01/25 05:12:18;;;;;;;36.53;20.40;;;;;;;-2.05;100.00;99646.19;5072906;28;20214;-64
2022/01/25 05:14:58;;;;;;;34.73;19.93;;;;;;;-2.06;100.00;99647.94;5072616;28;20593;-64
2022/01/25 05:17:34;;;;;;;34.30;18.73;;;;;;;-2.03;100.00;99641.91;5072602;28;20225;-64
2022/01/25 05:22:41;;;;;;;36.80;21.30;;;;;;;-2.12;100.00;99657.41;5070957;28;20243;-64
2022/01/25 05:25:08;;;;;;;39.13;20.60;;;;;;;-2.16;100.00;99658.22;5072442;28;20239;-64
2022/01/25 05:27:35;;;;;;;38.90;20.67;;;;;;;-2.26;100.00;99653.88;5070800;28;20226;-64
2022/01/25 05:30:01;;;;;;;32.87;19.77;;;;;;;-2.29;100.00;99659.03;5071614;28;20211;-64
2022/01/25 05:32:32;;;;;;;30.80;18.83;;;;;;;-2.30;100.00;99665.06;5072795;28;20225;-64
2022/01/25 05:34:59;;;;;;;31.60;19.23;;;;;;;-2.39;100.00;99655.53;5072868;28;20227;-64
2022/01/25 05:37:25;;;;;;;34.27;19.87;;;;;;;-2.48;100.00;99654.59;5072711;28;20225;-64
2022/01/25 05:39:52;;;;;;;35.10;19.80;;;;;;;-2.48;100.00;99657.19;5072306;28;20226;-65
2022/01/25 05:42:44;;;;;;;34.27;19.00;;;;;;;-2.43;100.00;99655.50;5075531;28;20244;-64
2022/01/25 05:45:21;;;;;;;36.20;20.03;;;;;;;-2.46;100.00;99660.69;5076631;28;20221;-64
2022/01/25 05:47:48;;;;;;;38.83;20.77;;;;;;;-2.48;100.00;99657.19;5076673;28;20213;-64
2022/01/25 05:50:15;;;;;;;39.07;21.93;;;;;;;-2.43;100.00;99663.25;5076381;28;20221;-64
2022/01/25 05:52:42;;;;;;;36.17;20.23;;;;;;;-2.43;100.00;99660.69;5074685;28;20211;-64
2022/01/25 05:55:10;;;;;;;33.80;18.70;;;;;;;-2.43;100.00;99658.09;5076185;28;20251;-64
2022/01/25 05:57:37;;;;;;;31.13;18.97;;;;;;;-2.44;100.00;99664.97;5076110;28;20247;-64
2022/01/25 06:00:06;;;;;;;31.73;18.80;;;;;;;-2.43;100.00;99666.72;5076373;28;20219;-64
2022/01/25 06:02:34;;;;;;;35.00;20.13;;;;;;;-2.45;100.00;99662.41;5076287;28;20240;-64
2022/01/25 06:05:01;;;;;;;34.40;18.90;;;;;;;-2.48;100.00;99672.72;5076131;28;20221;-64
2022/01/25 06:07:28;;;;;;;34.30;20.93;;;;;;;-2.48;100.00;99665.84;5075783;28;20708;-64
2022/01/25 06:09:55;;;;;;;34.03;19.07;;;;;;;-2.47;100.00;99680.50;5076083;28;20230;-64
2022/01/25 06:12:21;;;;;;;34.57;19.90;;;;;;;-2.59;100.00;99675.25;5075913;28;20217;-64
2022/01/25 06:14:48;;;;;;;35.43;19.17;;;;;;;-2.57;100.00;99688.19;5076031;28;20221;-64
2022/01/25 06:17:15;;;;;;;30.23;18.20;;;;;;;-2.60;100.00;99681.28;5075983;28;20208;-65
2022/01/25 06:19:41;;;;;;;31.00;18.47;;;;;;;-2.58;100.00;99682.16;5074294;28;20241;-64
2022/01/25 06:22:09;;;;;;;29.20;18.10;;;;;;;-2.57;100.00;99685.63;5075935;28;20244;-64
2022/01/25 06:24:36;;;;;;;31.30;18.30;;;;;;;-2.62;100.00;99684.72;5075565;28;20239;-64
2022/01/25 06:27:02;;;;;;;34.07;18.97;;;;;;;-2.70;100.00;99694.16;5075823;28;20214;-64
2022/01/25 06:29:28;;;;;;;30.80;17.70;;;;;;;-2.70;100.00;99691.56;5075437;28;20221;-64
2022/01/25 06:31:56;;;;;;;30.17;17.53;;;;;;;-2.71;100.00;99682.91;5075755;28;20225;-64
2022/01/25 06:34:22;;;;;;;33.83;17.93;;;;;;;-2.73;100.00;99691.53;5075330;28;20724;-64
2022/01/25 06:36:48;;;;;;;28.57;18.00;;;;;;;-2.74;100.00;99695.84;5075695;28;20212;-64
2022/01/25 06:39:17;;;;;;;32.03;18.13;;;;;;;-2.76;100.00;99701.84;5075336;28;20240;-64
2022/01/25 06:41:44;;;;;;;30.57;17.73;;;;;;;-2.75;100.00;99698.41;5075612;28;20603;-64
2022/01/25 06:44:10;;;;;;;31.57;19.53;;;;;;;-2.76;100.00;99702.72;5075311;28;20687;-64
2022/01/25 06:46:37;;;;;;;40.73;23.23;;;;;;;-2.79;100.00;99707.00;5073966;28;20216;-64
2022/01/25 06:49:03;;;;;;;39.67;22.63;;;;;;;-2.72;100.00;99706.19;5075409;28;20218;-64
2022/01/25 06:51:31;;;;;;;42.03;23.43;;;;;;;-2.63;100.00;99708.84;5075213;28;20237;-64
2022/01/25 06:53:57;;;;;;;41.20;23.30;;;;;;;-2.71;100.00;99710.50;5075040;28;20241;-64
2022/01/25 06:56:25;;;;;;;41.00;21.17;;;;;;;-2.70;100.00;99713.09;5075116;28;20240;-64
2022/01/25 06:58:52;;;;;;;37.40;21.43;;;;;;;-2.67;100.00;99713.16;5075269;28;20209;-64
2022/01/25 07:01:18;;;;;;;37.07;21.30;;;;;;;-2.68;100.00;99716.59;5075153;28;20217;-64
2022/01/25 07:03:45;;;;;;;32.83;18.53;;;;;;;-2.60;100.00;99724.41;5074732;28;20247;-64
2022/01/25 07:06:12;;;;;;;35.73;18.97;;;;;;;-2.58;100.00;99718.38;5075143;28;20210;-64
2022/01/25 07:08:38;;;;;;;33.27;17.87;;;;;;;-2.60;100.00;99714.03;5074805;28;20227;-64
2022/01/25 07:11:05;;;;;;;35.10;19.67;;;;;;;-2.60;100.00;99714.03;5074450;28;20710;-64
2022/01/25 07:13:33;;;;;;;30.90;17.63;;;;;;;-2.56;100.00;99719.28;5074209;28;20577;-64
2022/01/25 07:15:59;;;;;;;30.57;17.23;;;;;;;-2.57;100.00;99714.94;5074917;28;20218;-64
2022/01/25 07:18:25;;;;;;;32.10;18.90;;;;;;;-2.56;100.00;99721.88;5074883;28;20213;-64
2022/01/25 07:20:52;;;;;;;34.03;18.90;;;;;;;-2.56;100.00;99728.75;5074653;28;20211;-64
2022/01/25 07:23:18;;;;;;;36.80;19.77;;;;;;;-2.54;100.00;99719.25;5074567;28;20241;-64
2022/01/25 07:25:45;;;;;;;39.83;20.63;;;;;;;-2.55;100.00;99727.88;5068493;28;20239;-64
2022/01/25 07:28:11;;;;;;;31.73;18.33;;;;;;;-2.46;100.00;99733.16;5074494;28;20212;-64
2022/01/25 07:30:39;;;;;;;34.53;18.30;;;;;;;-2.45;100.00;99724.53;5074664;28;20221;-64
2022/01/25 07:33:07;;;;;;;31.23;18.43;;;;;;;-2.43;100.00;99727.97;5074531;28;20662;-64
2022/01/25 07:35:34;;;;;;;33.33;18.97;;;;;;;-2.41;100.00;99719.38;5074378;28;20683;-64
2022/01/25 07:38:00;;;;;;;33.73;17.70;;;;;;;-2.35;100.00;99721.13;5072896;28;20214;-64
2022/01/25 07:40:27;;;;;;;36.07;19.07;;;;;;;-2.29;100.00;99716.88;5074649;28;20217;-64
2022/01/25 07:42:54;;;;;;;33.80;17.53;;;;;;;-2.30;100.00;99719.44;5074432;28;20351;-64
2022/01/25 07:45:21;;;;;;;34.47;18.50;;;;;;;-2.26;100.00;99721.22;5074495;28;20593;-64
2022/01/25 07:47:49;;;;;;;34.90;19.30;;;;;;;-2.20;100.00;99722.09;5074143;28;20696;-64
2022/01/25 07:50:16;;;;;;;30.67;18.53;;;;;;;-2.13;100.00;99720.41;5074000;28;20217;-64
2022/01/25 07:52:43;;;;;;;32.83;19.23;;;;;;;-2.10;100.00;99717.84;5074418;28;20246;-64
2022/01/25 07:55:10;;;;;;;33.70;18.50;;;;;;;-2.02;100.00;99726.53;5074093;28;20226;-64
2022/01/25 07:57:38;;;;;;;34.83;18.83;;;;;;;-1.95;100.00;99733.47;5073875;28;20224;-64
2022/01/25 08:00:06;;;;;;;34.13;20.30;;;;;;;-1.95;100.00;99729.19;5074068;28;20296;-64
2022/01/25 08:02:32;;;;;;;35.53;19.83;;;;;;;-1.93;100.00;99726.56;5074009;28;20245;-64
2022/01/25 08:05:00;;;;;;;34.47;19.17;;;;;;;-1.85;100.00;99732.69;5071679;28;20213;-64
2022/01/25 08:07:26;;;;;;;35.93;20.33;;;;;;;-1.80;100.00;99728.34;5073790;28;20215;-64
2022/01/25 08:09:53;;;;;;;40.07;21.73;;;;;;;-1.72;100.00;99731.88;5073918;28;20214;-64
2022/01/25 08:12:19;;;;;;;40.07;21.67;;;;;;;-1.65;100.00;99729.28;5073770;28;20213;-64
2022/01/25 08:14:46;;;;;;;39.57;21.20;;;;;;;-1.56;100.00;99724.16;5073587;28;20215;-64
2022/01/25 08:17:15;;;;;;;37.20;20.77;;;;;;;-1.53;100.00;99724.16;5073726;28;20214;-64
2022/01/25 08:19:43;;;;;;;38.00;21.70;;;;;;;-1.49;100.00;99723.31;5073462;28;20213;-64
2022/01/25 08:22:11;;;;;;;39.50;21.30;;;;;;;-1.45;100.00;99731.97;5073229;28;20240;-63
2022/01/25 08:24:37;;;;;;;37.67;22.03;;;;;;;-1.40;100.00;99731.16;5073418;28;20242;-64
2022/01/25 08:27:04;;;;;;;36.80;21.93;;;;;;;-1.35;100.00;99725.97;5073683;28;20240;-64
2022/01/25 08:29:31;;;;;;;38.73;21.43;;;;;;;-1.28;100.00;99726.00;5073457;28;20219;-64
2022/01/25 08:31:57;;;;;;;38.57;22.90;;;;;;;-1.20;100.00;99728.59;5071771;28;20237;-64
2022/01/25 08:34:24;;;;;;;38.37;21.33;;;;;;;-1.19;100.00;99731.19;5073395;28;20240;-64
2022/01/25 08:36:50;;;;;;;41.77;22.43;;;;;;;-1.14;100.00;99728.59;5073465;28;20222;-64
2022/01/25 08:39:18;;;;;;;41.93;22.83;;;;;;;-1.11;100.00;99726.03;5073526;28;20219;-64
2022/01/25 08:41:45;;;;;;;44.73;25.20;;;;;;;-1.07;100.00;99736.41;5073521;28;20214;-64
2022/01/25 08:44:12;;;;;;;40.07;21.63;;;;;;;-0.99;100.00;99733.84;5073407;28;20245;-64
2022/01/25 08:46:39;;;;;;;41.17;22.13;;;;;;;-0.94;100.00;99734.69;5073317;28;20230;-65
2022/01/25 08:49:06;;;;;;;41.03;23.83;;;;;;;-0.83;100.00;99736.44;5070762;28;20248;-64
2022/01/25 08:51:32;;;;;;;44.23;23.70;;;;;;;-0.82;100.00;99738.19;5073327;28;20215;-64
2022/01/25 08:53:59;;;;;;;39.90;23.53;;;;;;;-0.73;100.00;99739.91;5073146;28;20223;-64
2022/01/25 08:56:27;;;;;;;45.20;24.90;;;;;;;-0.67;100.00;99726.94;5069550;28;20578;-64
2022/01/25 08:58:54;;;;;;;38.53;22.00;;;;;;;-0.64;100.00;99738.19;5070699;28;20222;-64
2022/01/25 09:01:20;;;;;;;38.20;22.17;;;;;;;-0.56;100.00;99733.00;5072055;28;20227;-65
2022/01/25 09:03:47;;;;;;;35.47;21.10;;;;;;;-0.53;100.00;99730.41;5072324;28;20242;-64
2022/01/25 09:06:14;;;;;;;36.23;22.03;;;;;;;-0.47;100.00;99735.59;5069872;28;20209;-65
2022/01/25 09:08:40;;;;;;;36.63;22.03;;;;;;;-0.42;100.00;99728.66;5070439;28;20225;-65
2022/01/25 09:11:07;;;;;;;39.70;23.07;;;;;;;-0.39;100.00;99739.06;5072127;28;20214;-65
2022/01/25 09:13:35;;;;;;;35.63;22.20;;;;;;;-0.36;100.00;99733.84;5069292;28;20222;-64
2022/01/25 09:16:02;;;;;;;35.43;21.27;;;;;;;-0.30;100.00;99736.44;5072082;28;20218;-64
2022/01/25 09:18:29;;;;;;;34.13;20.53;;;;;;;-0.25;100.00;99732.97;5072135;28;20222;-64
2022/01/25 09:20:56;;;;;;;31.57;21.07;;;;;;;-0.19;100.00;99727.75;5072859;28;20600;-64
2022/01/25 09:23:23;;;;;;;37.50;21.17;;;;;;;-0.16;100.00;99728.63;5068072;28;20242;-64
2022/01/25 09:25:50;;;;;;;36.63;22.53;;;;;;;-0.14;100.00;99725.19;5072211;28;20243;-63
2022/01/25 09:28:17;;;;;;;32.70;21.97;;;;;;;-0.07;100.00;99731.22;5072290;28;20211;-63
2022/01/25 09:30:45;;;;;;;39.67;21.73;;;;;;;-0.02;100.00;99737.28;5072696;28;20216;-62
2022/01/25 09:33:13;;;;;;;37.43;22.10;;;;;;;0.06;100.00;99734.66;5072678;28;20218;-63
2022/01/25 09:35:40;;;;;;;34.73;21.70;;;;;;;0.08;100.00;99728.56;5072499;28;20221;-63
2022/01/25 09:38:06;;;;;;;37.23;22.23;;;;;;;0.13;100.00;99729.44;5072543;28;20222;-62
2022/01/25 09:40:33;;;;;;;36.70;22.83;;;;;;;0.18;100.00;99724.22;5072489;28;20215;-62
2022/01/25 09:43:00;;;;;;;33.60;21.27;;;;;;;0.21;100.00;99725.09;5072659;28;20238;-62
2022/01/25 09:45:27;;;;;;;37.57;23.00;;;;;;;0.28;100.00;99721.59;5072408;28;20222;-64
2022/01/25 09:47:56;;;;;;;36.73;23.37;;;;;;;0.30;100.00;99721.56;5072725;28;20220;-63
2022/01/25 09:50:23;;;;;;;39.87;23.80;;;;;;;0.33;100.00;99717.22;5071069;28;20580;-64
2022/01/25 09:52:49;;;;;;;38.67;23.77;;;;;;;0.38;100.00;99718.09;5072537;28;20231;-65
2022/01/25 09:55:19;;;;;;;34.33;21.97;;;;;;;0.40;100.00;99718.97;5072351;28;20677;-62
2022/01/25 09:57:46;;;;;;;39.77;23.70;;;;;;;0.46;100.00;99720.66;5071218;28;20219;-62
2022/01/25 10:00:16;;;;;;;37.60;22.13;;;;;;;0.52;100.00;99716.31;5069890;28;20215;-65
2022/01/25 10:02:48;;;;;;;38.17;22.63;;;;;;;0.57;100.00;99711.94;5068556;28;20231;-62
2022/01/25 10:05:18;;;;;;;37.77;23.43;;;;;;;0.60;100.00;99719.72;5071367;28;20616;-61
2022/01/25 10:07:55;;;;;;;35.27;22.90;;;;;;;0.66;100.00;99714.50;5070098;28;20250;-61
2022/01/25 10:10:22;;;;;;;39.67;23.57;;;;;;;0.71;100.00;99717.94;5058284;28;20216;-61
2022/01/25 10:12:48;;;;;;;36.37;23.20;;;;;;;0.77;100.00;99723.13;5070674;28;20216;-61
2022/01/25 10:15:15;;;;;;;36.67;24.33;;;;;;;0.85;100.00;99718.72;5069239;28;20208;-61
2022/01/25 10:17:43;;;;;;;38.70;24.23;;;;;;;0.95;100.00;99719.53;5071392;28;20216;-61
2022/01/25 10:20:26;;;;;;;40.33;24.73;;;;;;;1.07;100.00;99716.84;5071287;28;20618;-61
2022/01/25 10:22:53;;;;;;;37.33;23.90;;;;;;;1.12;100.00;99715.94;5066527;28;20712;-63
2022/01/25 10:25:29;;;;;;;36.43;23.63;;;;;;;1.14;100.00;99719.41;5068540;28;20246;-63
2022/01/25 10:28:03;;;;;;;37.10;24.47;;;;;;;1.18;100.00;99726.31;5073299;28;20215;-63
2022/01/25 10:30:33;;;;;;;38.63;24.47;;;;;;;1.24;100.00;99723.66;5074338;28;20215;-63
2022/01/25 10:33:02;;;;;;;35.40;24.00;;;;;;;1.24;100.00;99721.06;5074951;28;20542;-61
2022/01/25 10:35:30;;;;;;;36.37;22.57;;;;;;;1.26;100.00;99716.72;5066385;28;20215;-61
2022/01/25 10:37:57;;;;;;;40.60;23.83;;;;;;;1.34;100.00;99720.13;5074350;28;20622;-61
2022/01/25 10:40:38;;;;;;;36.67;22.73;;;;;;;1.35;100.00;99721.84;5074654;28;20217;-61
2022/01/25 10:43:06;;;;;;;39.17;25.17;;;;;;;1.36;100.00;99722.72;5071098;28;20257;-61
2022/01/25 10:45:33;;;;;;;40.80;25.90;;;;;;;1.49;100.00;99720.03;5075613;28;20264;-63
2022/01/25 10:48:00;;;;;;;37.43;23.77;;;;;;;1.54;100.00;99706.94;5075557;28;20215;-63
2022/01/25 10:50:31;;;;;;;36.90;24.87;;;;;;;1.49;100.00;99712.22;5075449;28;20212;-61
2022/01/25 10:53:07;;;;;;;35.60;24.10;;;;;;;1.45;100.00;99704.41;5075419;28;20226;-63
2022/01/25 10:55:38;;;;;;;37.13;23.57;;;;;;;1.58;100.00;99714.72;5075459;28;20214;-63
2022/01/25 10:58:05;;;;;;;35.77;23.30;;;;;;;1.57;100.00;99710.41;5075028;28;20251;-63
2022/01/25 11:00:34;;;;;;;35.67;23.70;;;;;;;1.69;100.00;99715.50;5074837;28;20219;-62
2022/01/25 11:03:02;;;;;;;38.93;24.23;;;;;;;1.74;100.00;99703.28;5075214;28;20649;-62
2022/01/25 11:05:32;;;;;;;36.53;23.93;;;;;;;1.74;100.00;99708.50;5075392;28;20277;-62
2022/01/25 11:08:12;;;;;;;43.07;26.60;;;;;;;1.84;100.00;99702.31;5073337;28;20211;-62
2022/01/25 11:10:47;;;;;;;40.27;25.43;;;;;;;1.91;100.00;99706.56;5073352;28;20215;-63
2022/01/25 11:13:33;;;;;;;41.70;25.70;;;;;;;1.94;100.00;99696.13;5074892;28;20260;-62
2022/01/25 11:16:01;;;;;;;36.37;24.20;;;;;;;2.00;100.00;99706.50;5071007;28;20255;-62
2022/01/25 11:18:29;;;;;;;35.07;23.63;;;;;;;2.06;100.00;99695.13;5074610;28;20753;-63
2022/01/25 11:20:58;;;;;;;36.87;24.00;;;;;;;2.24;100.00;99693.19;5074805;28;20230;-63
2022/01/25 11:23:26;;;;;;;34.10;23.80;;;;;;;2.22;100.00;99701.91;5067592;28;20236;-63
2022/01/25 11:25:55;;;;;;;35.93;24.13;;;;;;;2.19;100.00;99692.38;5075072;28;20242;-63
2022/01/25 11:28:22;;;;;;;36.33;23.87;;;;;;;2.30;100.00;99689.63;5074798;28;20211;-63
2022/01/25 11:30:52;;;;;;;37.03;24.30;;;;;;;2.30;100.00;99685.28;5074774;28;20223;-63
2022/01/25 11:33:21;;;;;;;36.70;23.83;;;;;;;2.36;100.00;99682.63;5074701;28;20238;-63
2022/01/25 11:35:49;;;;;;;34.73;24.40;;;;;;;2.27;100.00;99690.53;5073058;28;20261;-63
2022/01/25 11:38:15;;;;;;;36.43;23.50;;;;;;;2.30;100.00;99682.69;5073894;28;20215;-63
2022/01/25 11:40:47;;;;;;;39.43;25.30;;;;;;;2.38;100.00;99691.28;5074215;28;20214;-63
2022/01/25 11:43:14;;;;;;;37.90;25.13;;;;;;;2.51;100.00;99685.03;5074513;28;20232;-62
2022/01/25 11:45:43;;;;;;;40.80;24.60;;;;;;;2.46;100.00;99688.59;5074225;28;20669;-62
2022/01/25 11:48:10;;;;;;;39.40;24.90;;;;;;;2.63;100.00;99684.88;5073754;28;20218;-62
2022/01/25 11:50:39;;;;;;;39.10;24.47;;;;;;;2.53;100.00;99693.72;5074248;28;20207;-63
2022/01/25 11:53:07;;;;;;;39.37;25.27;;;;;;;2.69;100.00;99692.63;5071890;28;20710;-62
2022/01/25 11:55:36;;;;;;;42.83;24.70;;;;;;;2.58;100.00;99691.88;5074148;28;20209;-63
2022/01/25 11:58:07;;;;;;;41.80;26.00;;;;;;;2.53;100.00;99687.63;5073787;28;20282;-63
2022/01/25 12:00:40;;;;;;;40.23;25.10;;;;;;;2.47;100.00;99691.19;5072010;28;20211;-63
2022/01/25 12:03:25;;;;;;;40.43;24.63;;;;;;;2.62;100.00;99693.59;5069599;28;20223;-63
2022/01/25 12:06:00;;;;;;;35.17;22.77;;;;;;;2.66;100.00;99683.97;5073195;28;20284;-63
2022/01/25 12:08:39;;;;;;;34.53;22.27;;;;;;;2.65;100.00;99697.91;5074054;28;20219;-63
2022/01/25 12:11:28;;;;;;;31.97;21.30;;;;;;;2.69;100.00;99694.38;5070612;28;20216;-63
2022/01/25 12:16:51;;;;;;;42.97;24.83;;;;;;;2.70;100.00;99699.56;5131438;27;20332;-65
2022/01/25 12:19:20;;;;;;;38.27;24.17;;;;;;;2.64;100.00;99697.03;5107291;28;20219;-64
2022/01/25 12:22:02;;;;;;;37.60;23.40;;;;;;;2.52;100.00;99689.34;5103133;28;20214;-64
2022/01/25 12:24:36;;;;;;;38.33;24.73;;;;;;;2.62;100.00;99683.13;5107167;28;20211;-64
2022/01/25 12:27:10;;;;;;;39.93;24.00;;;;;;;2.67;100.00;99691.78;5107676;28;20658;-64
2022/01/25 12:29:40;;;;;;;38.23;23.23;;;;;;;2.68;100.00;99687.41;5110981;28;20233;-65
2022/01/25 12:32:26;;;;;;;40.37;24.27;;;;;;;2.80;100.00;99677.69;5102830;28;20218;-66
2022/01/25 12:35:03;;;;;;;40.90;23.80;;;;;;;2.70;100.00;99681.28;5108349;28;20702;-64